Terminal Aerodrome Forecast
Issued by NWS Boston, MA

Home | Current Version | Previous Version | Text Only | Print | Product List | Glossary On
Versions: 1 2 3 4 5 6 7 8 9 10 11 12 13 14 15 16 17 18 19 20 21 22 23 24 25 26 27 28 29 30 31 32 33 34 35 36 37 38 39 40
000
FTUS41 KBOX 231133
TAFBDL
TAF
KBDL 231133Z 2312/2418 VRB03KT P6SM BKN100
     FM231800 20007KT P6SM FEW250
     FM240600 24004KT P6SM BKN025
     FM240700 VRB03KT 4SM BR BKN025
     FM240900 00000KT 2SM BR OVC003
     FM241400 VRB03KT P6SM BKN010=

USA.gov is the U.S. government's official web portal to all federal, state and local government web resources and services.